sensor_id;sensor_type;location;lat;lon;timestamp;pressure;altitude;pressure_sealevel;temperature;humidity
71149;BME280;59072;42.144;25.200;2022-12-07T00:00:53;100256.25;;;8.77;100.00
71149;BME280;59072;42.144;25.200;2022-12-07T00:03:19;100260.56;;;9.05;100.00
71149;BME280;59072;42.144;25.200;2022-12-07T00:05:44;100259.53;;;8.86;100.00
71149;BME280;59072;42.144;25.200;2022-12-07T00:08:10;100265.88;;;9.05;100.00
71149;BME280;59072;42.144;25.200;2022-12-07T00:10:35;100268.13;;;8.95;100.00
71149;BME280;59072;42.144;25.200;2022-12-07T00:13:01;100270.00;;;9.08;100.00
71149;BME280;59072;42.144;25.200;2022-12-07T00:15:26;100272.03;;;9.05;100.00
71149;BME280;59072;42.144;25.200;2022-12-07T00:17:52;100277.31;;;8.85;100.00
71149;BME280;59072;42.144;25.200;2022-12-07T00:20:17;100264.63;;;8.81;100.00
71149;BME280;59072;42.144;25.200;2022-12-07T00:22:42;100267.31;;;8.81;100.00
71149;BME280;59072;42.144;25.200;2022-12-07T00:25:08;100257.69;;;9.00;100.00
71149;BME280;59072;42.144;25.200;2022-12-07T00:27:33;100267.69;;;8.84;100.00
71149;BME280;59072;42.144;25.200;2022-12-07T00:29:59;100272.00;;;8.85;100.00
71149;BME280;59072;42.144;25.200;2022-12-07T00:32:24;100277.13;;;8.94;100.00
71149;BME280;59072;42.144;25.200;2022-12-07T00:34:49;100286.94;;;8.87;100.00
71149;BME280;59072;42.144;25.200;2022-12-07T00:37:15;100272.84;;;9.13;100.00
71149;BME280;59072;42.144;25.200;2022-12-07T00:39:40;100273.66;;;9.07;99.99
71149;BME280;59072;42.144;25.200;2022-12-07T00:42:06;100269.16;;;9.00;100.00
71149;BME280;59072;42.144;25.200;2022-12-07T00:44:31;100269.97;;;9.01;100.00
71149;BME280;59072;42.144;25.200;2022-12-07T00:46:57;100275.28;;;9.01;100.00
71149;BME280;59072;42.144;25.200;2022-12-07T00:49:22;100258.50;;;8.94;100.00
71149;BME280;59072;42.144;25.200;2022-12-07T00:51:48;100274.06;;;8.97;100.00
71149;BME280;59072;42.144;25.200;2022-12-07T00:54:14;100267.50;;;8.79;100.00
71149;BME280;59072;42.144;25.200;2022-12-07T00:56:39;100262.97;;;8.67;100.00
71149;BME280;59072;42.144;25.200;2022-12-07T00:59:05;100264.00;;;8.72;100.00
71149;BME280;59072;42.144;25.200;2022-12-07T01:01:32;100252.72;;;8.57;100.00
71149;BME280;59072;42.144;25.200;2022-12-07T01:03:58;100236.50;;;8.38;100.00
71149;BME280;59072;42.144;25.200;2022-12-07T01:06:26;100242.88;;;8.44;100.00
71149;BME280;59072;42.144;25.200;2022-12-07T01:08:52;100250.25;;;8.49;100.00
71149;BME280;59072;42.144;25.200;2022-12-07T01:11:20;100263.31;;;8.43;100.00
71149;BME280;59072;42.144;25.200;2022-12-07T01:13:45;100250.16;;;8.35;100.00
71149;BME280;59072;42.144;25.200;2022-12-07T01:16:14;100254.88;;;8.33;100.00
71149;BME280;59072;42.144;25.200;2022-12-07T01:18:41;100270.16;;;8.18;100.00
71149;BME280;59072;42.144;25.200;2022-12-07T01:23:35;100272.06;;;7.89;100.00
71149;BME280;59072;42.144;25.200;2022-12-07T01:26:04;100262.53;;;8.01;100.00
71149;BME280;59072;42.144;25.200;2022-12-07T01:28:30;100263.13;;;8.03;100.00
71149;BME280;59072;42.144;25.200;2022-12-07T01:31:00;100252.09;;;8.07;100.00
71149;BME280;59072;42.144;25.200;2022-12-07T01:33:32;100245.53;;;7.96;100.00
71149;BME280;59072;42.144;25.200;2022-12-07T01:36:06;100250.94;;;8.16;100.00
71149;BME280;59072;42.144;25.200;2022-12-07T01:38:33;100232.44;;;7.94;100.00
71149;BME280;59072;42.144;25.200;2022-12-07T01:40:59;100250.47;;;8.05;100.00
71149;BME280;59072;42.144;25.200;2022-12-07T01:43:28;100245.56;;;8.02;100.00
71149;BME280;59072;42.144;25.200;2022-12-07T01:45:54;100218.13;;;7.89;100.00
71149;BME280;59072;42.144;25.200;2022-12-07T01:48:23;100233.94;;;8.10;99.79
71149;BME280;59072;42.144;25.200;2022-12-07T01:50:51;100234.13;;;8.02;100.00
71149;BME280;59072;42.144;25.200;2022-12-07T01:53:21;100229.59;;;7.96;100.00
71149;BME280;59072;42.144;25.200;2022-12-07T01:55:52;100227.47;;;7.84;100.00
71149;BME280;59072;42.144;25.200;2022-12-07T01:58:17;100223.00;;;7.85;100.00
71149;BME280;59072;42.144;25.200;2022-12-07T02:00:43;100224.00;;;7.84;100.00
71149;BME280;59072;42.144;25.200;2022-12-07T02:03:19;100201.84;;;7.63;100.00
71149;BME280;59072;42.144;25.200;2022-12-07T02:05:46;100226.47;;;7.79;100.00
71149;BME280;59072;42.144;25.200;2022-12-07T02:08:13;100226.09;;;7.54;100.00
71149;BME280;59072;42.144;25.200;2022-12-07T02:10:39;100224.84;;;7.50;100.00
71149;BME280;59072;42.144;25.200;2022-12-07T02:29:54;100212.97;;;7.45;100.00
71149;BME280;59072;42.144;25.200;2022-12-07T02:32:24;100210.75;;;7.49;99.99
71149;BME280;59072;42.144;25.200;2022-12-07T02:35:11;100201.53;;;7.38;99.46
71149;BME280;59072;42.144;25.200;2022-12-07T02:38:02;100214.13;;;7.30;100.00
71149;BME280;59072;42.144;25.200;2022-12-07T02:43:04;100203.19;;;7.11;100.00
71149;BME280;59072;42.144;25.200;2022-12-07T02:45:34;100195.56;;;7.30;100.00
71149;BME280;59072;42.144;25.200;2022-12-07T02:48:02;100180.16;;;7.18;100.00
71149;BME280;59072;42.144;25.200;2022-12-07T02:50:28;100185.78;;;7.37;100.00
71149;BME280;59072;42.144;25.200;2022-12-07T02:52:54;100179.38;;;7.24;100.00
71149;BME280;59072;42.144;25.200;2022-12-07T02:55:25;100197.19;;;7.31;100.00
71149;BME280;59072;42.144;25.200;2022-12-07T03:00:48;100193.53;;;7.32;100.00
71149;BME280;59072;42.144;25.200;2022-12-07T03:03:17;100194.97;;;7.34;100.00
71149;BME280;59072;42.144;25.200;2022-12-07T03:11:08;100171.56;;;7.16;100.00
71149;BME280;59072;42.144;25.200;2022-12-07T03:14:09;100196.22;;;7.38;100.00
71149;BME280;59072;42.144;25.200;2022-12-07T03:16:52;100192.34;;;7.13;100.00
71149;BME280;59072;42.144;25.200;2022-12-07T03:19:22;100183.34;;;7.07;100.00
71149;BME280;59072;42.144;25.200;2022-12-07T03:21:55;100195.22;;;7.11;100.00
71149;BME280;59072;42.144;25.200;2022-12-07T03:24:25;100197.81;;;7.33;100.00
71149;BME280;59072;42.144;25.200;2022-12-07T03:26:55;100199.78;;;7.24;100.00
71149;BME280;59072;42.144;25.200;2022-12-07T03:29:36;100197.50;;;7.21;100.00
71149;BME280;59072;42.144;25.200;2022-12-07T03:32:16;100173.59;;;7.14;100.00
71149;BME280;59072;42.144;25.200;2022-12-07T03:35:38;100180.94;;;7.12;100.00
71149;BME280;59072;42.144;25.200;2022-12-07T03:37:43;100192.13;;;7.36;99.78
71149;BME280;59072;42.144;25.200;2022-12-07T03:40:22;100194.53;;;7.31;99.74
71149;BME280;59072;42.144;25.200;2022-12-07T03:42:50;100190.44;;;7.28;99.79
71149;BME280;59072;42.144;25.200;2022-12-07T03:45:17;100192.03;;;7.22;99.91
71149;BME280;59072;42.144;25.200;2022-12-07T03:47:46;100203.09;;;7.33;100.00
71149;BME280;59072;42.144;25.200;2022-12-07T03:50:28;100198.28;;;7.43;98.77
71149;BME280;59072;42.144;25.200;2022-12-07T03:53:11;100193.31;;;7.33;99.26
71149;BME280;59072;42.144;25.200;2022-12-07T03:55:42;100189.50;;;7.14;100.00
71149;BME280;59072;42.144;25.200;2022-12-07T03:58:11;100193.38;;;7.40;99.78
71149;BME280;59072;42.144;25.200;2022-12-07T04:00:38;100198.47;;;7.41;98.73
71149;BME280;59072;42.144;25.200;2022-12-07T04:03:03;100190.56;;;7.48;98.10
71149;BME280;59072;42.144;25.200;2022-12-07T04:05:29;100189.22;;;7.31;98.42
71149;BME280;59072;42.144;25.200;2022-12-07T04:07:54;100188.41;;;7.30;98.16
71149;BME280;59072;42.144;25.200;2022-12-07T04:10:20;100188.38;;;7.23;98.53
71149;BME280;59072;42.144;25.200;2022-12-07T04:12:45;100194.66;;;7.22;98.85
71149;BME280;59072;42.144;25.200;2022-12-07T04:15:11;100184.25;;;7.21;99.03
71149;BME280;59072;42.144;25.200;2022-12-07T04:17:37;100187.16;;;7.26;98.53
71149;BME280;59072;42.144;25.200;2022-12-07T04:20:04;100169.06;;;7.08;99.29
71149;BME280;59072;42.144;25.200;2022-12-07T04:22:30;100185.38;;;7.05;99.67
71149;BME280;59072;42.144;25.200;2022-12-07T04:24:55;100182.72;;;7.05;99.32
71149;BME280;59072;42.144;25.200;2022-12-07T04:27:21;100162.19;;;7.14;98.78
71149;BME280;59072;42.144;25.200;2022-12-07T04:29:46;100189.22;;;7.31;98.41
71149;BME280;59072;42.144;25.200;2022-12-07T04:32:11;100188.22;;;7.32;98.20
71149;BME280;59072;42.144;25.200;2022-12-07T04:34:37;100179.38;;;7.24;98.33
71149;BME280;59072;42.144;25.200;2022-12-07T04:37:02;100180.59;;;6.94;99.90
71149;BME280;59072;42.144;25.200;2022-12-07T04:39:30;100182.19;;;7.16;99.28
71149;BME280;59072;42.144;25.200;2022-12-07T04:41:56;100166.41;;;7.08;98.08
71149;BME280;59072;42.144;25.200;2022-12-07T04:44:23;100185.56;;;7.32;98.58
71149;BME280;59072;42.144;25.200;2022-12-07T04:46:49;100173.44;;;7.22;98.38
71149;BME280;59072;42.144;25.200;2022-12-07T04:49:15;100158.47;;;7.08;98.40
71149;BME280;59072;42.144;25.200;2022-12-07T04:51:41;100181.88;;;7.04;99.58
71149;BME280;59072;42.144;25.200;2022-12-07T04:54:07;100172.19;;;7.18;99.15
71149;BME280;59072;42.144;25.200;2022-12-07T04:56:33;100170.31;;;7.12;99.89
71149;BME280;59072;42.144;25.200;2022-12-07T04:59:00;100170.94;;;7.14;100.00
71149;BME280;59072;42.144;25.200;2022-12-07T05:01:26;100173.53;;;7.01;100.00
71149;BME280;59072;42.144;25.200;2022-12-07T05:03:51;100162.84;;;6.94;100.00
71149;BME280;59072;42.144;25.200;2022-12-07T05:06:17;100164.94;;;6.99;100.00
71149;BME280;59072;42.144;25.200;2022-12-07T05:08:42;100172.75;;;7.07;100.00
71149;BME280;59072;42.144;25.200;2022-12-07T05:11:09;100181.81;;;7.19;100.00
71149;BME280;59072;42.144;25.200;2022-12-07T05:13:55;100180.25;;;7.32;100.00
71149;BME280;59072;42.144;25.200;2022-12-07T05:16:20;100165.53;;;7.29;99.73
71149;BME280;59072;42.144;25.200;2022-12-07T05:18:46;100173.13;;;7.04;100.00
71149;BME280;59072;42.144;25.200;2022-12-07T05:21:11;100177.66;;;7.10;100.00
71149;BME280;59072;42.144;25.200;2022-12-07T05:23:36;100174.38;;;7.08;100.00
71149;BME280;59072;42.144;25.200;2022-12-07T05:26:02;100176.06;;;7.16;100.00
71149;BME280;59072;42.144;25.200;2022-12-07T05:28:27;100158.25;;;7.03;100.00
71149;BME280;59072;42.144;25.200;2022-12-07T05:30:53;100185.13;;;7.28;100.00
71149;BME280;59072;42.144;25.200;2022-12-07T05:33:18;100172.63;;;6.94;100.00
71149;BME280;59072;42.144;25.200;2022-12-07T05:35:44;100176.69;;;6.90;100.00
71149;BME280;59072;42.144;25.200;2022-12-07T05:38:09;100183.84;;;7.17;100.00
71149;BME280;59072;42.144;25.200;2022-12-07T05:40:36;100178.13;;;7.20;100.00
71149;BME280;59072;42.144;25.200;2022-12-07T05:43:02;100183.91;;;7.31;100.00
71149;BME280;59072;42.144;25.200;2022-12-07T05:45:27;100155.00;;;7.08;99.81
71149;BME280;59072;42.144;25.200;2022-12-07T05:47:53;100186.91;;;7.21;100.00
71149;BME280;59072;42.144;25.200;2022-12-07T05:50:18;100166.69;;;7.13;100.00
71149;BME280;59072;42.144;25.200;2022-12-07T05:52:44;100180.63;;;7.29;100.00
71149;BME280;59072;42.144;25.200;2022-12-07T05:55:09;100190.72;;;7.40;99.83
71149;BME280;59072;42.144;25.200;2022-12-07T05:57:34;100191.66;;;7.60;99.18
71149;BME280;59072;42.144;25.200;2022-12-07T06:00:00;100183.13;;;7.37;100.00
71149;BME280;59072;42.144;25.200;2022-12-07T06:02:28;100183.56;;;7.40;99.36
71149;BME280;59072;42.144;25.200;2022-12-07T06:04:54;100182.75;;;7.40;99.95
71149;BME280;59072;42.144;25.200;2022-12-07T06:07:19;100191.41;;;7.55;98.63
71149;BME280;59072;42.144;25.200;2022-12-07T06:09:45;100170.63;;;7.24;99.10
71149;BME280;59072;42.144;25.200;2022-12-07T06:12:11;100190.44;;;7.28;100.00
71149;BME280;59072;42.144;25.200;2022-12-07T06:14:56;100175.25;;;7.15;100.00
71149;BME280;59072;42.144;25.200;2022-12-07T06:17:21;100184.94;;;7.30;100.00
71149;BME280;59072;42.144;25.200;2022-12-07T06:19:47;100195.78;;;7.35;100.00
71149;BME280;59072;42.144;25.200;2022-12-07T06:22:12;100185.81;;;7.43;100.00
71149;BME280;59072;42.144;25.200;2022-12-07T06:24:38;100186.44;;;7.45;100.00
71149;BME280;59072;42.144;25.200;2022-12-07T06:27:04;100192.28;;;7.62;99.40
71149;BME280;59072;42.144;25.200;2022-12-07T06:29:30;100164.34;;;7.32;99.81
71149;BME280;59072;42.144;25.200;2022-12-07T06:31:55;100198.13;;;7.51;100.00
71149;BME280;59072;42.144;25.200;2022-12-07T06:34:22;100194.66;;;7.51;99.56
71149;BME280;59072;42.144;25.200;2022-12-07T06:36:49;100196.84;;;7.40;100.00
71149;BME280;59072;42.144;25.200;2022-12-07T06:39:18;100192.53;;;7.39;100.00
71149;BME280;59072;42.144;25.200;2022-12-07T06:41:43;100194.31;;;7.26;99.94
71149;BME280;59072;42.144;25.200;2022-12-07T06:44:09;100195.41;;;7.38;99.82
71149;BME280;59072;42.144;25.200;2022-12-07T06:46:34;100199.44;;;7.69;99.08
71149;BME280;59072;42.144;25.200;2022-12-07T06:49:04;100210.59;;;7.57;98.94
71149;BME280;59072;42.144;25.200;2022-12-07T06:51:30;100204.47;;;7.57;98.23
71149;BME280;59072;42.144;25.200;2022-12-07T06:53:55;100190.63;;;7.61;98.44
71149;BME280;59072;42.144;25.200;2022-12-07T06:56:21;100184.19;;;7.42;97.93
71149;BME280;59072;42.144;25.200;2022-12-07T06:58:48;100214.66;;;7.53;97.95
71149;BME280;59072;42.144;25.200;2022-12-07T07:01:15;100214.66;;;7.53;97.80
71149;BME280;59072;42.144;25.200;2022-12-07T07:03:42;100192.19;;;7.49;98.25
71149;BME280;59072;42.144;25.200;2022-12-07T07:06:08;100202.72;;;7.71;97.83
71149;BME280;59072;42.144;25.200;2022-12-07T07:08:35;100202.63;;;7.57;98.41
71149;BME280;59072;42.144;25.200;2022-12-07T07:11:00;100207.47;;;7.47;98.68
71149;BME280;59072;42.144;25.200;2022-12-07T07:13:26;100207.31;;;7.55;98.64
71149;BME280;59072;42.144;25.200;2022-12-07T07:15:52;100206.97;;;7.65;98.35
71149;BME280;59072;42.144;25.200;2022-12-07T07:18:17;100210.06;;;7.69;97.68
71149;BME280;59072;42.144;25.200;2022-12-07T07:20:43;100201.59;;;7.52;98.53
71149;BME280;59072;42.144;25.200;2022-12-07T07:23:08;100211.50;;;7.71;98.56
71149;BME280;59072;42.144;25.200;2022-12-07T07:25:34;100187.00;;;7.76;98.35
71149;BME280;59072;42.144;25.200;2022-12-07T07:27:59;100207.09;;;7.85;97.33
71149;BME280;59072;42.144;25.200;2022-12-07T07:30:26;100200.56;;;7.94;98.02
71149;BME280;59072;42.144;25.200;2022-12-07T07:32:51;100186.28;;;7.95;96.90
71149;BME280;59072;42.144;25.200;2022-12-07T07:35:20;100201.97;;;7.90;97.53
71149;BME280;59072;42.144;25.200;2022-12-07T07:37:46;100191.69;;;8.15;96.13
71149;BME280;59072;42.144;25.200;2022-12-07T07:40:11;100207.66;;;8.35;95.46
71149;BME280;59072;42.144;25.200;2022-12-07T07:42:37;100207.09;;;8.47;94.00
71149;BME280;59072;42.144;25.200;2022-12-07T07:45:02;100209.44;;;8.15;95.68
71149;BME280;59072;42.144;25.200;2022-12-07T07:47:28;100209.66;;;8.20;96.25
71149;BME280;59072;42.144;25.200;2022-12-07T07:49:54;100202.78;;;8.45;95.47
71149;BME280;59072;42.144;25.200;2022-12-07T07:52:19;100203.22;;;8.42;95.41
71149;BME280;59072;42.144;25.200;2022-12-07T07:54:45;100213.47;;;8.59;94.03
71149;BME280;59072;42.144;25.200;2022-12-07T07:57:10;100199.75;;;8.55;93.67
71149;BME280;59072;42.144;25.200;2022-12-07T07:59:35;100204.44;;;8.47;93.78
71149;BME280;59072;42.144;25.200;2022-12-07T08:02:01;100219.59;;;8.46;94.86
71149;BME280;59072;42.144;25.200;2022-12-07T08:04:26;100220.81;;;8.57;94.57
71149;BME280;59072;42.144;25.200;2022-12-07T08:06:52;100221.44;;;8.59;94.07
71149;BME280;59072;42.144;25.200;2022-12-07T08:09:17;100205.25;;;8.54;94.82
71149;BME280;59072;42.144;25.200;2022-12-07T08:11:43;100204.25;;;8.61;94.49
71149;BME280;59072;42.144;25.200;2022-12-07T08:14:10;100218.41;;;8.69;94.80
71149;BME280;59072;42.144;25.200;2022-12-07T08:16:35;100207.78;;;8.95;93.74
71149;BME280;59072;42.144;25.200;2022-12-07T08:19:01;100211.44;;;9.14;92.84
71149;BME280;59072;42.144;25.200;2022-12-07T08:21:26;100210.81;;;9.19;91.60
71149;BME280;59072;42.144;25.200;2022-12-07T08:23:52;100213.91;;;9.16;92.11
71149;BME280;59072;42.144;25.200;2022-12-07T08:26:17;100212.25;;;9.15;92.80
71149;BME280;59072;42.144;25.200;2022-12-07T08:28:43;100221.66;;;9.44;92.28
71149;BME280;59072;42.144;25.200;2022-12-07T08:31:13;100220.44;;;9.40;92.50
71149;BME280;59072;42.144;25.200;2022-12-07T08:33:39;100207.69;;;9.55;92.22
71149;BME280;59072;42.144;25.200;2022-12-07T08:36:13;100217.81;;;9.98;91.47
71149;BME280;59072;42.144;25.200;2022-12-07T08:38:40;100217.53;;;10.13;89.54
71149;BME280;59072;42.144;25.200;2022-12-07T08:41:07;100200.13;;;10.11;88.82
71149;BME280;59072;42.144;25.200;2022-12-07T08:43:33;100194.72;;;10.31;90.37
71149;BME280;59072;42.144;25.200;2022-12-07T08:48:31;100203.84;;;11.05;85.77
71149;BME280;59072;42.144;25.200;2022-12-07T08:50:57;100198.78;;;11.22;84.07
71149;BME280;59072;42.144;25.200;2022-12-07T08:53:24;100186.69;;;11.38;84.27
71149;BME280;59072;42.144;25.200;2022-12-07T08:55:51;100201.78;;;11.88;82.52
71149;BME280;59072;42.144;25.200;2022-12-07T08:58:16;100204.00;;;12.09;81.57
71149;BME280;59072;42.144;25.200;2022-12-07T09:00:42;100185.50;;;12.26;79.91
71149;BME280;59072;42.144;25.200;2022-12-07T09:03:07;100198.72;;;12.51;78.23
71149;BME280;59072;42.144;25.200;2022-12-07T09:05:33;100191.09;;;12.78;77.23
71149;BME280;59072;42.144;25.200;2022-12-07T09:08:00;100195.16;;;12.69;75.60
71149;BME280;59072;42.144;25.200;2022-12-07T09:10:28;100170.56;;;12.49;78.28
71149;BME280;59072;42.144;25.200;2022-12-07T09:12:54;100184.19;;;12.59;75.09
71149;BME280;59072;42.144;25.200;2022-12-07T09:15:19;100166.63;;;12.75;75.12
71149;BME280;59072;42.144;25.200;2022-12-07T09:17:45;100188.63;;;12.65;74.54
71149;BME280;59072;42.144;25.200;2022-12-07T09:20:11;100156.53;;;12.89;74.17
71149;BME280;59072;42.144;25.200;2022-12-07T09:22:37;100150.00;;;12.84;74.17
71149;BME280;59072;42.144;25.200;2022-12-07T09:25:03;100160.41;;;13.16;73.87
71149;BME280;59072;42.144;25.200;2022-12-07T09:27:30;100155.13;;;13.21;73.47
71149;BME280;59072;42.144;25.200;2022-12-07T09:29:56;100157.50;;;13.30;71.49
71149;BME280;59072;42.144;25.200;2022-12-07T09:32:21;100155.41;;;13.08;73.46
71149;BME280;59072;42.144;25.200;2022-12-07T09:34:47;100159.56;;;13.27;72.88
71149;BME280;59072;42.144;25.200;2022-12-07T09:37:12;100159.34;;;13.53;72.99
71149;BME280;59072;42.144;25.200;2022-12-07T09:39:38;100149.41;;;13.65;73.04
71149;BME280;59072;42.144;25.200;2022-12-07T09:42:04;100132.88;;;13.97;70.86
71149;BME280;59072;42.144;25.200;2022-12-07T09:44:32;100142.28;;;13.99;72.67
71149;BME280;59072;42.144;25.200;2022-12-07T09:46:58;100139.97;;;13.62;73.04
71149;BME280;59072;42.144;25.200;2022-12-07T09:49:25;100146.19;;;13.51;73.09
71149;BME280;59072;42.144;25.200;2022-12-07T09:52:20;100129.06;;;13.29;73.19
71149;BME280;59072;42.144;25.200;2022-12-07T09:54:50;100131.28;;;13.43;73.47
71149;BME280;59072;42.144;25.200;2022-12-07T09:57:17;100115.88;;;13.91;68.82
71149;BME280;59072;42.144;25.200;2022-12-07T09:59:43;100103.69;;;13.83;72.43
71149;BME280;59072;42.144;25.200;2022-12-07T10:05:12;100114.25;;;14.36;67.80
71149;BME280;59072;42.144;25.200;2022-12-07T10:07:39;100114.81;;;13.92;71.19
71149;BME280;59072;42.144;25.200;2022-12-07T10:10:13;100104.81;;;13.88;70.13
71149;BME280;59072;42.144;25.200;2022-12-07T10:13:01;100102.72;;;13.49;71.37
71149;BME280;59072;42.144;25.200;2022-12-07T10:24:21;100084.59;;;14.76;67.64
71149;BME280;59072;42.144;25.200;2022-12-07T10:28:54;100094.81;;;14.45;66.24
71149;BME280;59072;42.144;25.200;2022-12-07T10:31:22;100078.50;;;14.64;66.36
71149;BME280;59072;42.144;25.200;2022-12-07T10:39:01;100095.38;;;16.09;62.42
71149;BME280;59072;42.144;25.200;2022-12-07T10:41:27;100089.53;;;15.90;58.95
71149;BME280;59072;42.144;25.200;2022-12-07T10:43:55;100072.63;;;15.94;61.38
71149;BME280;59072;42.144;25.200;2022-12-07T10:57:15;100085.78;;;15.68;61.72
71149;BME280;59072;42.144;25.200;2022-12-07T11:00:19;100081.81;;;15.98;58.72
71149;BME280;59072;42.144;25.200;2022-12-07T11:11:43;100064.75;;;14.77;63.56
71149;BME280;59072;42.144;25.200;2022-12-07T11:14:05;100061.50;;;14.75;64.62
71149;BME280;59072;42.144;25.200;2022-12-07T11:16:51;100052.28;;;15.54;61.98
71149;BME280;59072;42.144;25.200;2022-12-07T11:19:34;100045.84;;;16.04;61.08
71149;BME280;59072;42.144;25.200;2022-12-07T11:22:13;100044.25;;;16.41;59.85
71149;BME280;59072;42.144;25.200;2022-12-07T11:30:40;100041.59;;;15.81;60.68
71149;BME280;59072;42.144;25.200;2022-12-07T11:38:41;100039.75;;;15.87;62.56
71149;BME280;59072;42.144;25.200;2022-12-07T11:41:08;100027.16;;;15.93;60.41
71149;BME280;59072;42.144;25.200;2022-12-07T11:51:49;99994.59;;;16.64;58.91
71149;BME280;59072;42.144;25.200;2022-12-07T11:54:30;100009.69;;;15.95;61.76
71149;BME280;59072;42.144;25.200;2022-12-07T11:57:02;99997.72;;;15.26;63.20
71149;BME280;59072;42.144;25.200;2022-12-07T11:59:33;100006.97;;;14.92;65.44
71149;BME280;59072;42.144;25.200;2022-12-07T12:02:13;99986.19;;;14.48;66.98
71149;BME280;59072;42.144;25.200;2022-12-07T12:07:37;99990.75;;;14.64;66.36
71149;BME280;59072;42.144;25.200;2022-12-07T12:10:06;99983.44;;;14.43;66.60
71149;BME280;59072;42.144;25.200;2022-12-07T12:19:21;99974.19;;;13.83;69.58
71149;BME280;59072;42.144;25.200;2022-12-07T12:21:17;99973.34;;;13.49;72.05
71149;BME280;59072;42.144;25.200;2022-12-07T12:24:18;99977.66;;;13.38;71.54
71149;BME280;59072;42.144;25.200;2022-12-07T12:26:51;99961.88;;;13.24;71.00
71149;BME280;59072;42.144;25.200;2022-12-07T12:29:34;99970.94;;;13.23;71.72
71149;BME280;59072;42.144;25.200;2022-12-07T12:45:32;99978.97;;;12.83;75.29
71149;BME280;59072;42.144;25.200;2022-12-07T12:48:09;99984.81;;;12.68;75.75
71149;BME280;59072;42.144;25.200;2022-12-07T12:54:03;99979.38;;;13.03;75.04
71149;BME280;59072;42.144;25.200;2022-12-07T12:56:43;99956.66;;;12.77;74.99
71149;BME280;59072;42.144;25.200;2022-12-07T13:01:46;99960.16;;;13.18;73.36
71149;BME280;59072;42.144;25.200;2022-12-07T13:04:28;99966.94;;;13.66;72.60
71149;BME280;59072;42.144;25.200;2022-12-07T13:06:55;99960.44;;;13.34;73.75
71149;BME280;59072;42.144;25.200;2022-12-07T13:09:24;99960.19;;;13.47;73.50
71149;BME280;59072;42.144;25.200;2022-12-07T13:11:58;99967.28;;;13.01;74.79
71149;BME280;59072;42.144;25.200;2022-12-07T13:14:42;99948.16;;;12.69;74.76
71149;BME280;59072;42.144;25.200;2022-12-07T13:25:12;99934.84;;;12.33;77.43
71149;BME280;59072;42.144;25.200;2022-12-07T13:27:51;99940.53;;;12.49;76.73
71149;BME280;59072;42.144;25.200;2022-12-07T13:30:21;99960.97;;;12.66;75.89
71149;BME280;59072;42.144;25.200;2022-12-07T13:32:55;99950.03;;;12.56;75.20
71149;BME280;59072;42.144;25.200;2022-12-07T13:35:53;99961.44;;;12.63;75.84
71149;BME280;59072;42.144;25.200;2022-12-07T13:38:24;99954.59;;;12.44;76.85
71149;BME280;59072;42.144;25.200;2022-12-07T13:41:03;99957.13;;;12.62;74.62
71149;BME280;59072;42.144;25.200;2022-12-07T13:43:29;99949.56;;;12.71;75.38
71149;BME280;59072;42.144;25.200;2022-12-07T13:45:58;99946.56;;;12.56;75.87
71149;BME280;59072;42.144;25.200;2022-12-07T13:48:43;99953.06;;;12.48;77.08
71149;BME280;59072;42.144;25.200;2022-12-07T13:51:26;99935.78;;;12.27;77.21
71149;BME280;59072;42.144;25.200;2022-12-07T13:53:58;99955.19;;;12.22;78.84
71149;BME280;59072;42.144;25.200;2022-12-07T13:56:32;99954.03;;;12.30;78.35
71149;BME280;59072;42.144;25.200;2022-12-07T13:58:59;99949.03;;;12.22;78.94
71149;BME280;59072;42.144;25.200;2022-12-07T14:01:25;99948.78;;;12.35;79.40
71149;BME280;59072;42.144;25.200;2022-12-07T14:03:51;99926.69;;;12.04;79.26
71149;BME280;59072;42.144;25.200;2022-12-07T14:08:43;99955.75;;;12.13;80.73
71149;BME280;59072;42.144;25.200;2022-12-07T14:11:17;99964.59;;;12.01;80.27
71149;BME280;59072;42.144;25.200;2022-12-07T14:13:51;99965.38;;;11.90;80.70
71149;BME280;59072;42.144;25.200;2022-12-07T14:16:40;99959.59;;;11.93;80.74
71149;BME280;59072;42.144;25.200;2022-12-07T14:22:07;99947.75;;;11.71;83.61
71149;BME280;59072;42.144;25.200;2022-12-07T14:24:42;99947.09;;;11.75;82.70
71149;BME280;59072;42.144;25.200;2022-12-07T14:27:17;99949.25;;;11.66;84.49
71149;BME280;59072;42.144;25.200;2022-12-07T14:29:43;99959.25;;;11.59;85.08
71149;BME280;59072;42.144;25.200;2022-12-07T14:32:29;99950.75;;;11.62;84.88
71149;BME280;59072;42.144;25.200;2022-12-07T14:37:20;99946.91;;;11.58;84.46
71149;BME280;59072;42.144;25.200;2022-12-07T14:39:45;99954.34;;;11.56;85.17
71149;BME280;59072;42.144;25.200;2022-12-07T14:42:11;99937.78;;;11.36;86.18
71149;BME280;59072;42.144;25.200;2022-12-07T14:44:36;99948.63;;;11.41;86.75
71149;BME280;59072;42.144;25.200;2022-12-07T14:47:02;99947.44;;;11.37;86.45
71149;BME280;59072;42.144;25.200;2022-12-07T14:49:27;99928.22;;;11.16;86.76
71149;BME280;59072;42.144;25.200;2022-12-07T14:51:53;99928.66;;;11.13;87.31
71149;BME280;59072;42.144;25.200;2022-12-07T14:54:19;99948.22;;;11.07;87.24
71149;BME280;59072;42.144;25.200;2022-12-07T14:56:46;99955.97;;;10.97;87.53
71149;BME280;59072;42.144;25.200;2022-12-07T14:59:15;99945.44;;;11.02;87.14
71149;BME280;59072;42.144;25.200;2022-12-07T15:01:41;99942.31;;;11.05;87.04
71149;BME280;59072;42.144;25.200;2022-12-07T15:04:06;99954.72;;;10.99;86.96
71149;BME280;59072;42.144;25.200;2022-12-07T15:06:32;99957.00;;;10.96;88.07
71149;BME280;59072;42.144;25.200;2022-12-07T15:08:58;99960.94;;;10.93;87.95